Airfield :
LOGIN :

Register | Disclaimer

   EN    FR    IT 

 










Legend :    VFR   Marginal VFR   IFR   Intensive IFR   Very Intensive IFR
Visi :
Ceiling :
>= 8 km
>= 3000ft
5 to 8 km
1000 to 3000 ft
1500m to 5 km
500 to 1000 ft
800 to 1500m
200 to 500 ft
< 800m
< 200 ft
Symbols :   Thunderstorms  Fog  Heavy snow  Heavy precipitations  Wind > 20 kt
SIGMETs :     Misc.  Thunderstorms  Icing  Turbulence  Mountain Waves  Volcanic Ashes







- Airport Elevation : 1197 ft
- IATA code : SPM


ETAD - Spangdahlem Ab

CURRENT METAR :
  • 171100Z AUTO 25008KT 9999 FEW012 OVC018 01/00 A3020 RMK AO2 CIG 017 RWY05 SLP236 TSNO $

EXPIRED METARs :
  • 171053Z AUTO 25007KT 9999 FEW007 OVC017 01/M01 A3020 RMK AO2 CIG 013V017 SLP236 TSNO $
  • 171046Z AUTO 24006KT 9999 FEW007 OVC013 01/M01 A3021 RMK AO2 SLP239 TSNO $
  • 171032Z AUTO 23009KT 9999 FEW007 OVC015 01/00 A3021 RMK AO2 SLP239 TSNO $
  • 171031Z AUTO 23009KT 9999 OVC015 01/00 A3021 RMK AO2 SLP239 TSNO $
  • 171024Z AUTO 23008KT 9999 BKN014 BKN019 02/00 A3021 RMK AO2 SLP238 TSNO $
  • 170956Z AUTO 23007KT 9999 SCT010 OVC018 01/M01 A3020 RMK AO2 UPB01E06UPB13E26 CIG 008V020 SLP236 P0000 T00051010 TSNO $
  • 170947Z AUTO 23007KT 9999 BKN008 OVC020 01/M01 A3020 RMK AO2 UPB01E06UPB13E26 CIG 006V010 BKN V OVC SLP236 TSNO $
  • 170940Z AUTO 22007KT 9999 BKN006 BKN010 OVC020 00/M01 A3020 RMK AO2 UPB01E06UPB13E26 CIG 006V008 BKN006 V OVC SLP236 TSNO $
  • 170926Z AUTO 22005KT 9000 BR OVC006 00/M01 A3020 RMK AO2 UPB01E06UPB13E26 SLP236 TSNO $
  • 170920Z AUTO 23007KT 9000 -UP BR OVC006 00/M01 A3020 RMK AO2 UPB01E06UPB13 SLP236 TSNO $
  • 170913Z AUTO 23006KT 9999 -UP BKN007 BKN011 OVC021 00/M01 A3020 RMK AO2 UPB01E06UPB13 CIG 007V011 BKN007 V SCT SLP236 TSNO $
  • 170901Z AUTO 23004KT 9999 -UP SCT007 BKN011 OVC021 00/M01 A3019 RMK AO2 UPB01 SLP232 TSNO $
  • 170853Z AUTO 24006KT 9999 BKN012 OVC020 00/M01 A3019 RMK AO2 UPB39E53 SLP232 TSNO $
  • 170839Z AUTO 25005KT 9999 -UP OVC012 00/M02 A3018 RMK AO2 UPB39 SLP229 TSNO $

TAF TAF ETAD
Valid from the 17 at 11:00 until the 18 at 17:00 UTC


171111Z 1711/1817 24006KT 9999 BKN015 620157 QNH3017INS
TEMPO 1711/1716 BKN010
BECMG 1716/1717 22008KT 9999 BKN008 620107 QNH3005INS
BECMG 1723/1724 22012G20KT 3200 SN BKN008 610089 611006 QNH3006INS
TEMPO 1800/1804 BKN005
BECMG 1804/1805 22006KT 5000 -RASN BKN008 610109 611006 QNH3005INS
BECMG 1812/1813 32003KT 9999 NSW BKN010 QNH3016INS TX03/1811Z TNM01/1800Z
No reported NOTAMs for that airfield.



MET'MAP, your aeronautical weather chart ! - Copyright ORBIFLY December 2007 - Disclaimer

ORBIFLY MET'MAP TEAM :

Programming & Development : Alexandra Zaïnal
Concept & Development : Baudouin d'Aumeries
Co-Development & Prog : Marc-Olivier Méhu
Technical & hardware support : Manuel Goepfert

Contact : metmap@orbifly.com




SOURCES & CREDITS :

   NOAA